This is the latest recevied weather packets stored in our database for station/object WD7OO. If no packets are shown the sender has not sent any weather packets the latest 10 day(s).
| Time | Temp. | Humidity | Pressure | Rain* | Wind** | Luminosity | Snow |
|---|---|---|---|---|---|---|---|
| 1777830498 | 15° C | 50% | 1013.3 hPa | 0 mm | - | 418 W/m² | - |
| 1777829588 | 15.56° C | 47% | 1013.3 hPa | 0 mm | - | 543 W/m² | - |
| 1777829285 | 15.56° C | 50% | 1013.4 hPa | 0 mm | - | 496 W/m² | - |
| 1777828072 | 16.11° C | 46% | 1013.9 hPa | 0 mm | - | 615 W/m² | - |
| 1777827466 | 15.56° C | 50% | 1014 hPa | 0 mm | - | 644 W/m² | - |
| 1777826253 | 15.56° C | 49% | 1014.5 hPa | 0 mm | - | 554 W/m² | - |
| 1777825951 | 15.56° C | 49% | 1014.4 hPa | 0 mm | - | 613 W/m² | - |
| 1777825647 | 16.11° C | 47% | 1014.4 hPa | 0 mm | - | 655 W/m² | - |
| 1777825346 | 15.56° C | 50% | 1014.3 hPa | 0 mm | - | 703 W/m² | - |
| 1777825042 | 16.11° C | 48% | 1014.3 hPa | 0 mm | - | 432 W/m² | - |
| 1777824131 | 15° C | 48% | 1014.4 hPa | 0 mm | - | 753 W/m² | - |
| 1777823828 | 15° C | 50% | 1014.5 hPa | 0 mm | - | 579 W/m² | - |
| 1777823222 | 13.89° C | 51% | 1014.8 hPa | 0 mm | - | 436 W/m² | - |
| 1777822617 | 13.33° C | 52% | 1014.6 hPa | 0 mm | - | 282 W/m² | - |
| 1777822315 | 12.78° C | 52% | 1014.7 hPa | 0 mm | - | 252 W/m² | - |
| 1777821710 | 12.78° C | 53% | 1014.8 hPa | 0 mm | - | 182 W/m² | - |
| 1777821407 | 12.78° C | 51% | 1015.1 hPa | 0 mm | - | 161 W/m² | - |
| 1777820497 | 13.33° C | 50% | 1015.3 hPa | 0 mm | - | 295 W/m² | - |
| 1777819892 | 13.33° C | 52% | 1015.3 hPa | 0 mm | - | 553 W/m² | - |
| 1777819589 | 12.78° C | 50% | 1015.1 hPa | 0 mm | - | 372 W/m² | - |
| 1777819287 | 12.78° C | 50% | 1015.2 hPa | 0 mm | - | 340 W/m² | - |
| 1777818983 | 12.78° C | 50% | 1015.4 hPa | 0 mm | - | 385 W/m² | - |
| 1777818680 | 12.78° C | 50% | 1015.2 hPa | 0 mm | - | 388 W/m² | - |
| 1777818377 | 12.78° C | 49% | 1015.4 hPa | 0 mm | - | 351 W/m² | - |
| 1777817770 | 12.78° C | 50% | 1015.3 hPa | 0 mm | - | 397 W/m² | - |
* Rain latest hour (hover to see other rain measurements)
** Current wind speed in m/s (hover to see current wind gust speed)